Time;durP1;ratioP1;P1;durP2;ratioP2;P2;SDS_P1;SDS_P2;PMS_P1;PMS_P2;Temp;Humidity;BMP_temperature;BMP_pressure;BME280_temperature;BME280_humidity;BME280_pressure;Samples;Min_cycle;Max_cycle;Signal;HPM_P1;HPM_P2
2024/03/25 00:01:39;;;;;;;3.28;1.83;;;;;;;27.19;25.12;98785.84;7395351;19;20014;-62
2024/03/25 00:04:05;;;;;;;1.42;1.33;;;;;;;25.64;26.67;98783.88;7397264;19;20010;-62
2024/03/25 00:06:33;;;;;;;2.13;1.92;;;;;;;25.58;26.96;98776.38;7397493;19;20022;-62
2024/03/25 00:09:00;;;;;;;4.65;0.90;;;;;;;25.34;27.00;98779.56;7401887;19;20011;-62
2024/03/25 00:11:26;;;;;;;1.33;0.80;;;;;;;25.61;26.83;98773.69;7395893;19;20010;-62
2024/03/25 00:13:52;;;;;;;1.20;1.10;;;;;;;25.95;26.53;98771.13;7395484;19;20025;-62
2024/03/25 00:16:19;;;;;;;6.32;1.63;;;;;;;26.10;26.61;98762.19;7397517;19;20015;-62
2024/03/25 00:18:45;;;;;;;0.90;0.80;;;;;;;26.23;26.34;98758.06;7397345;19;20474;-62
2024/03/25 00:21:11;;;;;;;1.02;1.00;;;;;;;26.36;26.26;98760.38;7399812;19;20108;-62
2024/03/25 00:23:37;;;;;;;0.68;0.68;;;;;;;26.29;26.48;98756.34;7397031;19;20014;-62
2024/03/25 00:26:03;;;;;;;1.38;0.90;;;;;;;26.28;26.83;98749.16;7396620;19;20015;-62
2024/03/25 00:28:29;;;;;;;7.72;1.30;;;;;;;26.25;26.87;98749.63;7396227;19;20010;-62
2024/03/25 00:30:55;;;;;;;0.85;0.85;;;;;;;26.17;26.78;98744.13;7396293;19;20034;-62
2024/03/25 00:33:22;;;;;;;0.90;0.90;;;;;;;26.41;26.91;98742.16;7400618;19;20014;-62
2024/03/25 00:35:49;;;;;;;0.52;0.52;;;;;;;25.33;28.07;98738.19;7397007;19;20018;-62
2024/03/25 00:38:15;;;;;;;0.98;0.98;;;;;;;25.51;27.57;98730.97;7398620;19;20336;-62
2024/03/25 00:40:42;;;;;;;1.77;0.93;;;;;;;25.78;27.63;98727.81;7394447;19;20373;-62
2024/03/25 00:43:08;;;;;;;0.95;0.82;;;;;;;24.91;28.55;98727.34;7397776;19;20550;-62
2024/03/25 00:45:34;;;;;;;1.00;0.90;;;;;;;25.06;28.34;98726.28;7400601;19;20031;-62
2024/03/25 00:48:00;;;;;;;12.27;1.67;;;;;;;25.42;28.37;98717.50;7395024;19;20014;-62
2024/03/25 00:50:26;;;;;;;1.15;1.13;;;;;;;25.00;28.44;98723.72;7394896;19;20373;-62
2024/03/25 00:52:52;;;;;;;2.05;1.05;;;;;;;25.24;28.56;98716.91;7395919;19;20015;-62
2024/03/25 00:55:19;;;;;;;0.70;0.70;;;;;;;26.26;27.32;98705.47;7395423;19;20510;-62
2024/03/25 00:57:45;;;;;;;4.00;1.65;;;;;;;25.44;28.36;98706.97;7393851;19;20026;-62
2024/03/25 01:00:12;;;;;;;0.55;0.55;;;;;;;25.15;28.63;98700.59;7395462;19;20486;-62
2024/03/25 01:02:38;;;;;;;0.52;0.52;;;;;;;24.94;28.70;98700.50;7393667;19;20010;-62
2024/03/25 01:05:05;;;;;;;0.55;0.55;;;;;;;25.10;28.46;98695.22;7396175;19;20372;-62
2024/03/25 01:07:31;;;;;;;1.05;1.02;;;;;;;26.19;27.86;98687.19;7395558;19;20022;-62
2024/03/25 01:09:58;;;;;;;6.40;0.95;;;;;;;25.58;28.21;98686.50;7398881;19;20482;-62
2024/03/25 01:12:25;;;;;;;0.52;0.52;;;;;;;25.66;28.12;98678.50;7394306;19;20013;-62
2024/03/25 01:14:52;;;;;;;0.73;0.60;;;;;;;25.84;27.80;98676.88;7394862;19;20109;-62
2024/03/25 01:17:19;;;;;;;0.40;0.40;;;;;;;25.50;28.43;98678.88;7395522;19;20006;-62
2024/03/25 01:19:45;;;;;;;3.33;1.13;;;;;;;27.11;27.04;98668.13;7396123;19;20006;-62
2024/03/25 01:22:11;;;;;;;7.80;0.95;;;;;;;27.33;26.58;98658.81;7393327;19;20014;-62
2024/03/25 01:24:37;;;;;;;3.50;1.58;;;;;;;26.72;27.51;98657.09;7393626;19;20038;-62
2024/03/25 01:27:03;;;;;;;0.55;0.50;;;;;;;26.15;27.92;98669.03;7394167;19;20083;-62
2024/03/25 01:29:29;;;;;;;0.93;0.93;;;;;;;26.75;27.13;98658.00;7398771;19;20471;-62
2024/03/25 01:31:57;;;;;;;2.42;1.20;;;;;;;26.84;27.10;98663.63;7393959;19;20014;-62
2024/03/25 01:34:23;;;;;;;0.82;0.82;;;;;;;26.80;27.06;98648.31;7395199;19;20471;-62
2024/03/25 01:36:49;;;;;;;2.45;1.48;;;;;;;26.90;26.96;98649.69;7394969;19;20763;-62
2024/03/25 01:39:15;;;;;;;1.95;1.63;;;;;;;28.14;26.41;98640.84;7398255;19;20026;-62
2024/03/25 01:41:41;;;;;;;1.38;1.38;;;;;;;28.46;26.22;98643.44;7394273;19;20502;-62
2024/03/25 01:44:08;;;;;;;0.73;0.73;;;;;;;28.49;25.76;98633.59;7396136;19;20014;-62
2024/03/25 01:46:34;;;;;;;1.25;1.15;;;;;;;28.49;25.98;98625.00;7392610;19;20010;-62
2024/03/25 01:49:00;;;;;;;1.05;1.05;;;;;;;28.66;25.73;98626.69;7397061;19;20027;-62
2024/03/25 01:51:26;;;;;;;0.82;0.82;;;;;;;29.03;25.66;98612.22;7393836;19;20014;-62
2024/03/25 01:53:54;;;;;;;5.43;1.30;;;;;;;29.31;25.25;98605.19;7394066;19;20018;-62
2024/03/25 01:56:23;;;;;;;0.60;0.60;;;;;;;29.25;25.40;98607.72;7392788;19;20006;-62
2024/03/25 01:58:50;;;;;;;1.42;1.02;;;;;;;29.25;25.30;98602.00;7394763;19;20439;-62
2024/03/25 02:01:17;;;;;;;4.68;1.67;;;;;;;29.35;24.74;98596.03;7393254;19;20037;-62
2024/03/25 02:03:44;;;;;;;3.15;1.55;;;;;;;29.20;25.45;98600.28;7391163;19;20362;-62
2024/03/25 02:06:13;;;;;;;1.15;1.05;;;;;;;29.16;25.12;98597.94;7393162;19;20038;-62
2024/03/25 02:08:41;;;;;;;2.47;1.10;;;;;;;29.54;24.89;98589.88;7397084;19;20025;-62
2024/03/25 02:11:08;;;;;;;1.88;1.02;;;;;;;29.66;24.95;98585.50;7392709;19;20010;-62
2024/03/25 02:13:35;;;;;;;1.20;1.20;;;;;;;29.58;24.72;98573.63;7393889;19;20015;-62
2024/03/25 02:16:02;;;;;;;1.50;1.10;;;;;;;28.88;25.51;98572.72;7392697;19;20015;-62
2024/03/25 02:18:28;;;;;;;2.05;1.77;;;;;;;29.11;24.92;98558.94;7396343;19;20367;-62
2024/03/25 02:20:54;;;;;;;4.07;0.75;;;;;;;28.87;25.35;98548.31;7392672;19;20011;-62
2024/03/25 02:23:20;;;;;;;1.83;0.85;;;;;;;28.93;25.63;98552.25;7390905;19;20014;-62
2024/03/25 02:25:50;;;;;;;2.95;1.13;;;;;;;28.81;25.55;98540.09;7392422;19;20324;-62
2024/03/25 02:28:17;;;;;;;1.10;1.10;;;;;;;28.74;25.62;98529.69;7394606;19;20007;-62
2024/03/25 02:30:43;;;;;;;3.75;1.85;;;;;;;28.49;25.52;98527.59;7392619;19;20011;-62
2024/03/25 02:33:10;;;;;;;4.95;2.13;;;;;;;28.99;25.18;98520.28;7392390;19;20015;-62
2024/03/25 02:35:38;;;;;;;1.05;1.02;;;;;;;29.28;24.88;98511.81;7392959;19;20046;-61
2024/03/25 02:38:06;;;;;;;1.10;1.00;;;;;;;29.00;25.18;98507.44;7393838;19;20010;-61
2024/03/25 02:40:33;;;;;;;4.22;1.27;;;;;;;28.43;25.69;98501.50;7392674;19;20017;-61
2024/03/25 02:42:59;;;;;;;8.48;1.08;;;;;;;28.33;25.42;98503.78;7390973;19;20026;-61
2024/03/25 02:45:26;;;;;;;1.20;1.10;;;;;;;28.29;25.58;98497.09;7397344;19;20021;-61
2024/03/25 02:47:52;;;;;;;1.75;1.65;;;;;;;28.27;26.10;98488.41;7394000;19;20165;-61
2024/03/25 02:50:19;;;;;;;2.08;1.10;;;;;;;28.35;25.70;98489.59;7391120;19;20011;-61
2024/03/25 02:52:45;;;;;;;1.08;1.08;;;;;;;28.70;25.59;98485.75;7392187;19;20017;-61
2024/03/25 02:55:11;;;;;;;2.47;1.00;;;;;;;28.47;25.32;98492.38;7390746;19;20014;-62
2024/03/25 02:57:37;;;;;;;1.67;1.13;;;;;;;29.03;25.43;98478.22;7390424;19;20033;-62
2024/03/25 03:00:04;;;;;;;0.50;0.50;;;;;;;29.22;25.10;98479.94;7392047;19;20010;-61
2024/03/25 03:02:30;;;;;;;10.02;2.35;;;;;;;29.06;25.32;98471.19;7390675;19;20007;-61
2024/03/25 03:04:56;;;;;;;1.08;1.08;;;;;;;28.81;25.46;98467.72;7392168;19;20042;-61
2024/03/25 03:07:22;;;;;;;3.40;1.55;;;;;;;28.50;25.25;98465.34;7392564;19;20018;-61
2024/03/25 03:09:48;;;;;;;2.10;0.93;;;;;;;28.40;25.53;98462.66;7397612;19;20639;-61
2024/03/25 03:12:15;;;;;;;7.80;0.98;;;;;;;28.45;25.48;98452.91;7398002;19;20010;-61
2024/03/25 03:14:41;;;;;;;1.90;0.60;;;;;;;28.47;25.66;98452.28;7398548;19;20041;-61
2024/03/25 03:17:07;;;;;;;2.10;0.77;;;;;;;28.51;25.44;98450.38;7399706;19;20014;-61
2024/03/25 03:19:34;;;;;;;1.30;1.25;;;;;;;28.33;25.84;98449.38;7399945;19;20172;-61
2024/03/25 03:22:02;;;;;;;3.80;1.63;;;;;;;28.25;25.53;98446.09;7395389;19;20007;-61
2024/03/25 03:24:29;;;;;;;2.50;0.88;;;;;;;28.18;25.62;98435.66;7397301;19;20014;-61
2024/03/25 03:26:55;;;;;;;1.15;0.98;;;;;;;28.42;25.82;98437.00;7396393;19;20030;-61
2024/03/25 03:29:21;;;;;;;3.67;1.85;;;;;;;28.52;25.72;98434.66;7397517;19;20011;-61
2024/03/25 03:31:47;;;;;;;8.18;2.45;;;;;;;28.53;25.49;98433.28;7397594;19;20014;-61
2024/03/25 03:34:13;;;;;;;0.68;0.68;;;;;;;28.56;25.31;98419.81;7397542;19;20018;-61
2024/03/25 03:36:40;;;;;;;0.98;0.90;;;;;;;28.64;25.60;98426.00;7397114;19;20017;-61
2024/03/25 03:39:08;;;;;;;3.75;1.73;;;;;;;28.60;25.56;98419.31;7400973;19;20015;-61
2024/03/25 03:41:35;;;;;;;1.27;0.68;;;;;;;28.48;25.44;98420.13;7397643;19;20070;-61
2024/03/25 03:44:02;;;;;;;1.95;1.55;;;;;;;28.44;25.52;98411.31;7397358;19;20018;-61
2024/03/25 03:46:28;;;;;;;3.95;1.15;;;;;;;28.52;25.60;98416.75;7398080;19;20011;-61
2024/03/25 03:48:55;;;;;;;2.72;1.08;;;;;;;28.50;25.16;98408.78;7395942;19;20018;-61
2024/03/25 03:51:21;;;;;;;4.30;1.83;;;;;;;28.47;25.42;98410.06;7395385;19;20016;-61
2024/03/25 03:53:47;;;;;;;0.90;0.90;;;;;;;29.10;25.00;98411.22;7395882;19;20033;-61
2024/03/25 03:56:16;;;;;;;3.08;1.80;;;;;;;29.37;24.99;98410.44;7395683;19;20025;-61
2024/03/25 03:58:42;;;;;;;6.07;2.70;;;;;;;29.36;25.05;98403.22;7399363;19;20026;-61
2024/03/25 04:01:16;;;;;;;2.63;1.40;;;;;;;28.56;25.10;98399.03;7396174;19;20011;-61
2024/03/25 04:03:42;;;;;;;1.50;0.98;;;;;;;28.39;25.68;98392.41;7397049;19;20015;-61
2024/03/25 04:06:12;;;;;;;17.55;1.88;;;;;;;28.29;25.62;98391.13;7395249;19;20011;-60
2024/03/25 04:08:39;;;;;;;0.47;0.47;;;;;;;28.10;25.47;98394.41;7396059;19;20014;-60
2024/03/25 04:11:06;;;;;;;2.08;1.25;;;;;;;28.33;25.37;98397.81;7397030;19;20770;-60
2024/03/25 04:13:33;;;;;;;0.88;0.88;;;;;;;28.23;25.62;98385.84;7395766;19;20014;-60
2024/03/25 04:16:04;;;;;;;11.30;1.65;;;;;;;28.60;25.11;98387.78;7397253;19;20015;-61
2024/03/25 04:18:31;;;;;;;;;;;;;;;28.46;25.02;98388.50;7396163;19;20011;-61
2024/03/25 04:20:58;;;;;;;2.00;1.73;;;;;;;28.44;25.27;98388.41;7392641;19;19915;-61
2024/03/25 04:23:25;;;;;;;5.80;1.00;;;;;;;28.60;25.27;98387.78;7395843;19;20486;-60
2024/03/25 04:25:51;;;;;;;2.05;1.63;;;;;;;29.02;24.68;98387.13;7394273;19;20466;-61
2024/03/25 04:28:17;;;;;;;1.20;1.15;;;;;;;29.01;24.82;98377.03;7397243;19;20011;-61
2024/03/25 04:30:43;;;;;;;0.75;0.70;;;;;;;28.94;25.10;98375.25;7394751;19;20439;-60
2024/03/25 04:33:09;;;;;;;13.32;1.35;;;;;;;29.08;24.88;98373.09;7400712;19;20015;-60
2024/03/25 04:35:36;;;;;;;11.77;1.45;;;;;;;29.18;24.97;98376.50;7395517;19;20019;-60
2024/03/25 04:38:02;;;;;;;1.63;1.35;;;;;;;29.69;24.18;98371.84;7394934;19;20014;-61
2024/03/25 04:40:29;;;;;;;1.65;1.55;;;;;;;29.11;24.91;98366.06;7394666;19;20010;-61
2024/03/25 04:42:55;;;;;;;9.75;1.45;;;;;;;28.90;24.81;98367.19;7392819;19;20458;-60
2024/03/25 04:45:21;;;;;;;2.88;1.15;;;;;;;28.85;25.16;98361.88;7399779;19;20047;-60
2024/03/25 04:47:47;;;;;;;1.10;1.10;;;;;;;28.84;25.09;98357.53;7395097;19;20051;-60
2024/03/25 04:50:13;;;;;;;0.73;0.73;;;;;;;28.81;25.43;98358.81;7394699;19;20018;-60
2024/03/25 04:52:39;;;;;;;2.72;1.15;;;;;;;28.69;25.53;98349.59;7396294;19;20336;-60
2024/03/25 04:55:06;;;;;;;2.95;1.08;;;;;;;29.05;25.35;98345.69;7398919;19;20015;-60
2024/03/25 04:57:32;;;;;;;21.17;1.73;;;;;;;29.35;25.20;98340.75;7394615;19;20066;-60
2024/03/25 04:59:58;;;;;;;1.23;1.00;;;;;;;29.25;25.47;98335.25;7396055;19;20007;-60
2024/03/25 05:02:24;;;;;;;0.65;0.65;;;;;;;28.73;25.80;98326.88;7392936;19;20047;-60
2024/03/25 05:04:50;;;;;;;0.98;0.80;;;;;;;28.44;26.43;98331.13;7396122;19;20428;-60
2024/03/25 05:07:16;;;;;;;7.85;1.13;;;;;;;28.50;26.41;98328.56;7395397;19;20067;-60
2024/03/25 05:09:42;;;;;;;0.75;0.73;;;;;;;28.57;26.26;98321.06;7398082;19;20018;-60
2024/03/25 05:12:09;;;;;;;0.40;0.40;;;;;;;28.09;26.83;98327.09;7393320;19;20049;-61
2024/03/25 05:14:35;;;;;;;1.27;1.17;;;;;;;28.41;26.51;98317.34;7396665;19;20080;-60
2024/03/25 05:17:03;;;;;;;0.63;0.63;;;;;;;28.66;26.11;98313.63;7392637;19;20375;-60
2024/03/25 05:19:29;;;;;;;1.75;0.60;;;;;;;27.82;27.18;98319.16;7393972;19;20467;-60
2024/03/25 05:21:55;;;;;;;0.82;0.82;;;;;;;28.13;27.19;98310.84;7390734;19;20014;-60
2024/03/25 05:24:21;;;;;;;0.80;0.70;;;;;;;28.37;26.38;98306.41;7395797;19;20097;-60
2024/03/25 05:26:48;;;;;;;3.35;0.90;;;;;;;28.21;26.90;98311.28;7392673;19;20031;-60
2024/03/25 05:29:14;;;;;;;0.38;0.38;;;;;;;28.16;27.02;98306.72;7394853;19;20015;-60
2024/03/25 05:31:57;;;;;;;2.28;1.10;;;;;;;27.55;27.56;98302.66;7395006;19;20344;-60
2024/03/25 05:34:24;;;;;;;0.90;0.90;;;;;;;28.14;27.53;98300.88;7392936;19;20027;-60
2024/03/25 05:36:50;;;;;;;0.70;0.70;;;;;;;28.11;27.06;98305.00;7392937;19;20026;-60
2024/03/25 05:39:16;;;;;;;6.90;1.67;;;;;;;28.07;27.25;98304.09;7397093;19;20011;-60
2024/03/25 05:41:43;;;;;;;1.75;0.80;;;;;;;28.18;27.39;98301.09;7393755;19;20070;-60
2024/03/25 05:44:09;;;;;;;5.88;1.20;;;;;;;28.72;27.36;98296.75;7395774;19;20439;-60
2024/03/25 05:46:35;;;;;;;1.08;0.95;;;;;;;29.27;27.00;98303.81;7394365;19;20007;-60
2024/03/25 05:49:03;;;;;;;1.65;1.17;;;;;;;29.47;26.65;98290.44;7393360;19;20015;-60
2024/03/25 05:51:29;;;;;;;0.50;0.50;;;;;;;29.51;26.38;98293.50;7393171;19;20018;-60
2024/03/25 05:53:56;;;;;;;1.00;0.17;;;;;;;29.33;26.62;98294.75;7394948;19;20082;-60
2024/03/25 05:56:22;;;;;;;0.68;0.60;;;;;;;28.61;27.72;98297.63;7393866;19;20372;-60
2024/03/25 05:58:48;;;;;;;0.30;0.30;;;;;;;28.67;27.66;98287.22;7392850;19;20006;-60
2024/03/25 06:01:14;;;;;;;10.02;1.20;;;;;;;29.31;26.67;98286.81;7393423;19;20042;-60
2024/03/25 06:03:40;;;;;;;0.80;0.80;;;;;;;29.23;26.60;98286.41;7393793;19;20014;-60
2024/03/25 06:06:07;;;;;;;1.48;0.88;;;;;;;29.24;27.09;98282.91;7394343;19;20011;-60
2024/03/25 06:08:33;;;;;;;1.75;1.30;;;;;;;28.91;27.27;98279.06;7393273;19;20091;-60
2024/03/25 06:11:02;;;;;;;3.72;1.27;;;;;;;28.59;27.37;98281.03;7393697;19;20003;-60
2024/03/25 06:13:28;;;;;;;12.25;0.75;;;;;;;28.72;27.48;98274.53;7392828;19;20041;-60
2024/03/25 06:15:54;;;;;;;1.40;1.25;;;;;;;28.75;27.85;98272.53;7395860;19;20467;-60
2024/03/25 06:18:21;;;;;;;2.63;1.52;;;;;;;28.77;27.44;98275.50;7391825;19;20018;-60
2024/03/25 06:20:47;;;;;;;13.55;0.98;;;;;;;28.97;27.73;98270.78;7392657;19;20403;-60
2024/03/25 06:23:23;;;;;;;2.20;1.48;;;;;;;29.64;27.10;98260.38;7392448;19;20021;-60
2024/03/25 06:25:52;;;;;;;1.08;0.80;;;;;;;28.28;27.96;98266.53;7397034;19;20015;-60
2024/03/25 06:28:19;;;;;;;7.32;1.38;;;;;;;27.75;28.69;98260.13;7392767;19;20029;-60
2024/03/25 06:36:17;;;;;;;6.35;0.75;;;;;;;27.95;28.53;98249.00;7393476;19;20048;-61
2024/03/25 06:38:43;;;;;;;0.57;0.57;;;;;;;28.06;28.56;98242.47;7392811;19;20474;-61
2024/03/25 06:41:10;;;;;;;1.60;1.10;;;;;;;27.91;28.28;98235.25;7392233;19;20025;-61
2024/03/25 06:43:37;;;;;;;4.85;1.08;;;;;;;27.97;28.46;98235.59;7393563;19;20014;-61
2024/03/25 06:46:04;;;;;;;0.70;0.35;;;;;;;27.94;28.27;98231.09;7409602;19;20011;-61
2024/03/25 06:48:31;;;;;;;1.30;0.95;;;;;;;27.90;28.70;98233.75;7405665;19;20342;-61
2024/03/25 06:50:59;;;;;;;2.33;1.38;;;;;;;27.72;28.86;98218.50;7406178;19;20491;-61
2024/03/25 06:53:25;;;;;;;1.08;1.08;;;;;;;27.48;29.03;98228.63;7406455;19;20339;-61
2024/03/25 06:55:56;;;;;;;0.75;0.43;;;;;;;26.38;30.40;98226.59;7404064;19;20014;-61
2024/03/25 06:58:25;;;;;;;4.10;0.90;;;;;;;26.48;30.43;98232.94;7406781;19;20455;-62
2024/03/25 07:00:52;;;;;;;7.00;1.17;;;;;;;26.43;30.70;98227.59;7406382;19;20034;-62
2024/03/25 07:03:19;;;;;;;1.00;0.95;;;;;;;26.26;30.43;98226.66;7404643;19;20014;-62
2024/03/25 07:05:47;;;;;;;0.32;0.32;;;;;;;26.30;30.44;98229.00;7405691;19;20467;-62
2024/03/25 07:08:13;;;;;;;1.85;1.10;;;;;;;26.51;30.41;98217.38;7406310;19;20408;-62
2024/03/25 07:10:43;;;;;;;3.60;0.63;;;;;;;26.58;30.36;98224.94;7405785;19;20027;-62
2024/03/25 07:13:10;;;;;;;0.45;0.45;;;;;;;26.79;30.47;98215.47;7405942;19;20373;-62
2024/03/25 07:15:37;;;;;;;3.70;1.80;;;;;;;27.24;29.52;98215.81;7404082;19;20022;-62
2024/03/25 07:18:03;;;;;;;0.32;0.32;;;;;;;27.26;29.72;98218.78;7406145;19;20018;-61
2024/03/25 07:20:30;;;;;;;0.93;0.93;;;;;;;27.24;29.81;98215.81;7406929;19;20007;-60
2024/03/25 07:22:58;;;;;;;0.88;0.43;;;;;;;27.03;29.95;98217.56;7403957;19;20013;-60
2024/03/25 07:25:25;;;;;;;1.23;0.88;;;;;;;27.09;29.99;98205.72;7406039;19;20038;-60
2024/03/25 07:27:55;;;;;;;1.38;0.75;;;;;;;26.87;30.31;98213.81;7403786;19;20791;-60
2024/03/25 07:30:27;;;;;;;1.35;0.30;;;;;;;27.19;30.22;98208.41;7405486;19;20014;-60
2024/03/25 07:32:55;;;;;;;0.50;0.50;;;;;;;27.28;30.33;98216.03;7404680;19;20481;-60
2024/03/25 07:35:21;;;;;;;1.10;0.47;;;;;;;27.35;30.29;98212.16;7404727;19;20006;-60
2024/03/25 07:37:51;;;;;;;0.75;0.70;;;;;;;27.29;30.22;98211.81;7403108;19;20507;-60
2024/03/25 07:40:17;;;;;;;0.88;0.88;;;;;;;27.02;30.13;98213.22;7404267;19;20018;-60
2024/03/25 07:42:44;;;;;;;0.55;0.55;;;;;;;26.78;30.81;98206.13;7403550;19;20009;-60
2024/03/25 07:45:10;;;;;;;2.30;1.02;;;;;;;26.70;30.94;98211.38;7408575;19;20007;-60
2024/03/25 07:47:37;;;;;;;0.43;0.43;;;;;;;26.63;30.90;98200.22;7405543;19;20015;-60
2024/03/25 07:50:03;;;;;;;1.08;0.88;;;;;;;27.45;30.55;98195.56;7404424;19;20328;-60
2024/03/25 07:52:29;;;;;;;1.45;0.70;;;;;;;27.17;30.59;98194.00;7405355;19;20010;-60
2024/03/25 07:54:55;;;;;;;0.30;0.30;;;;;;;27.19;30.93;98191.25;7405661;19;20010;-60
2024/03/25 07:57:21;;;;;;;0.35;0.35;;;;;;;27.24;30.45;98184.38;7395518;19;20022;-61
2024/03/25 07:59:48;;;;;;;1.58;1.05;;;;;;;27.12;30.77;98181.59;7396986;19;20021;-61
2024/03/25 08:02:14;;;;;;;0.65;0.43;;;;;;;26.55;31.51;98183.34;7395708;19;20006;-60
2024/03/25 08:04:41;;;;;;;0.82;0.65;;;;;;;26.75;31.40;98175.22;7397134;19;20011;-61
2024/03/25 08:07:07;;;;;;;8.18;1.45;;;;;;;27.00;30.61;98187.41;7399041;19;20019;-60
2024/03/25 08:09:33;;;;;;;0.82;0.65;;;;;;;27.19;30.40;98182.66;7401125;19;20011;-60
2024/03/25 08:11:59;;;;;;;5.97;1.10;;;;;;;27.50;30.21;98183.72;7397906;19;20010;-60
2024/03/25 08:14:26;;;;;;;1.75;0.65;;;;;;;27.68;30.03;98178.19;7397551;19;20017;-60
2024/03/25 08:16:52;;;;;;;0.43;0.43;;;;;;;27.83;30.04;98189.00;7397382;19;20038;-59
2024/03/25 08:19:18;;;;;;;0.45;0.45;;;;;;;28.04;30.15;98187.97;7397783;19;20007;-60
2024/03/25 08:21:44;;;;;;;3.38;0.70;;;;;;;28.10;30.11;98189.03;7395052;19;20011;-59
2024/03/25 08:24:10;;;;;;;4.28;0.65;;;;;;;28.05;30.49;98184.47;7397024;19;20027;-59
2024/03/25 08:26:36;;;;;;;0.95;0.57;;;;;;;28.41;29.97;98177.00;7397609;19;20010;-59
2024/03/25 08:29:03;;;;;;;5.60;2.17;;;;;;;28.23;29.59;98185.41;7396306;19;20019;-60
2024/03/25 08:31:30;;;;;;;4.50;1.05;;;;;;;27.43;30.78;98184.03;7398131;19;20018;-60
2024/03/25 08:33:56;;;;;;;1.48;0.93;;;;;;;27.01;31.08;98188.88;7394677;19;20019;-60
2024/03/25 08:36:22;;;;;;;0.68;0.43;;;;;;;26.88;30.73;98180.25;7397194;19;20099;-60
2024/03/25 08:38:48;;;;;;;0.73;0.52;;;;;;;27.57;30.25;98190.50;7398213;19;20003;-60
2024/03/25 08:41:15;;;;;;;1.17;0.98;;;;;;;27.94;30.33;98187.44;7395209;19;20119;-60
2024/03/25 08:43:41;;;;;;;0.40;0.30;;;;;;;28.27;30.00;98179.88;7399182;19;20018;-60
2024/03/25 08:46:07;;;;;;;1.33;1.23;;;;;;;28.46;29.86;98187.25;7395187;19;20014;-60
2024/03/25 08:48:33;;;;;;;1.65;0.50;;;;;;;28.46;29.78;98184.41;7395942;19;20015;-60
2024/03/25 08:50:59;;;;;;;0.45;0.45;;;;;;;28.63;29.76;98174.53;7396249;19;20027;-60
2024/03/25 08:53:25;;;;;;;0.82;0.63;;;;;;;28.48;29.86;98178.75;7398951;19;20011;-60
2024/03/25 08:55:51;;;;;;;2.55;0.88;;;;;;;28.44;30.17;98181.44;7394043;19;20010;-60
2024/03/25 08:58:17;;;;;;;1.10;0.68;;;;;;;28.50;30.00;98171.00;7394654;19;20489;-60
2024/03/25 09:00:44;;;;;;;1.42;0.68;;;;;;;28.66;29.87;98173.22;7397133;19;20014;-59
2024/03/25 09:03:13;;;;;;;1.20;1.05;;;;;;;28.75;29.71;98175.09;7394947;19;20486;-59
2024/03/25 09:05:39;;;;;;;0.20;0.20;;;;;;;28.99;29.59;98176.28;7395633;19;20014;-60
2024/03/25 09:08:11;;;;;;;0.50;0.47;;;;;;;28.63;29.65;98175.25;7394805;19;20010;-60
2024/03/25 09:13:25;;;;;;;0.45;0.45;;;;;;;28.13;30.37;98178.44;7395260;19;20007;-60
2024/03/25 09:15:51;;;;;;;1.73;0.98;;;;;;;27.10;31.87;98172.91;7398104;19;20025;-60
2024/03/25 09:18:20;;;;;;;6.00;0.80;;;;;;;26.99;31.89;98179.44;7395877;19;20014;-60
2024/03/25 09:20:47;;;;;;;0.45;0.45;;;;;;;26.92;31.75;98175.50;7393563;19;20010;-60
2024/03/25 09:23:13;;;;;;;1.20;0.60;;;;;;;26.75;32.07;98170.25;7391841;19;20021;-60
2024/03/25 09:25:39;;;;;;;0.50;0.50;;;;;;;26.64;32.47;98173.88;7391672;19;20701;-60
2024/03/25 09:28:06;;;;;;;0.35;0.35;;;;;;;26.63;32.18;98165.94;7395703;19;20018;-60
2024/03/25 09:30:33;;;;;;;1.70;0.70;;;;;;;26.59;32.33;98172.19;7395192;19;20018;-59
2024/03/25 09:32:59;;;;;;;0.22;0.20;;;;;;;26.67;32.45;98161.22;7394556;19;20433;-60
2024/03/25 09:35:25;;;;;;;1.55;0.75;;;;;;;26.72;32.50;98165.78;7394247;19;20058;-59
2024/03/25 09:37:51;;;;;;;0.40;0.40;;;;;;;27.29;32.04;98157.50;7394564;19;20041;-60
2024/03/25 09:40:17;;;;;;;0.40;0.40;;;;;;;27.14;31.89;98149.53;7397876;19;20467;-60
2024/03/25 09:42:48;;;;;;;0.95;0.80;;;;;;;27.43;32.16;98152.56;7392196;19;20018;-59
2024/03/25 09:45:18;;;;;;;5.75;1.20;;;;;;;27.34;31.79;98145.63;7398185;19;20042;-60
2024/03/25 09:47:48;;;;;;;3.30;1.05;;;;;;;27.42;32.05;98133.91;7395134;19;20015;-59
2024/03/25 09:50:19;;;;;;;1.63;0.52;;;;;;;27.51;31.96;98136.56;7396242;19;20044;-59
2024/03/25 09:52:46;;;;;;;0.82;0.60;;;;;;;27.44;32.05;98142.63;7392196;19;20025;-60
2024/03/25 09:55:13;;;;;;;0.68;0.68;;;;;;;28.42;30.91;98133.38;7393428;19;20006;-58
2024/03/25 09:57:41;;;;;;;3.33;1.30;;;;;;;28.71;31.23;98134.78;7393519;19;20070;-59
2024/03/25 10:00:10;;;;;;;1.05;0.85;;;;;;;29.16;30.92;98132.66;7393670;19;20066;-59
2024/03/25 10:02:41;;;;;;;0.45;0.45;;;;;;;28.26;31.59;98138.31;7394025;19;20110;-59
2024/03/25 10:05:07;;;;;;;1.95;0.68;;;;;;;27.64;32.16;98137.94;7392871;19;20015;-59
2024/03/25 10:07:34;;;;;;;0.32;0.32;;;;;;;27.99;31.68;98126.94;7394200;19;20037;-59
2024/03/25 10:10:05;;;;;;;0.28;0.28;;;;;;;27.16;32.70;98129.63;7396400;19;20015;-60
2024/03/25 10:12:32;;;;;;;2.88;1.13;;;;;;;27.65;32.25;98128.00;7393408;19;20387;-59
2024/03/25 10:14:59;;;;;;;1.50;0.70;;;;;;;26.63;33.18;98135.28;7394729;19;20018;-59
2024/03/25 10:17:25;;;;;;;1.20;0.60;;;;;;;26.49;33.26;98131.59;7392015;19;20209;-59
2024/03/25 10:19:54;;;;;;;0.52;0.52;;;;;;;26.04;34.02;98124.69;7394133;19;20021;-60
2024/03/25 10:22:21;;;;;;;3.47;0.85;;;;;;;26.34;34.07;98123.59;7396956;19;20011;-60
2024/03/25 10:24:48;;;;;;;4.18;0.63;;;;;;;27.52;33.43;98111.59;7391429;19;20018;-60
2024/03/25 10:27:22;;;;;;;0.50;0.50;;;;;;;28.54;31.99;98116.06;7396896;19;20034;-59
2024/03/25 10:29:55;;;;;;;0.22;0.22;;;;;;;27.77;32.31;98117.16;7395972;19;20015;-60
2024/03/25 10:32:24;;;;;;;4.32;0.82;;;;;;;27.75;32.07;98105.63;7391390;19;20018;-60
2024/03/25 10:34:51;;;;;;;0.52;0.52;;;;;;;26.72;33.20;98116.47;7390666;19;20010;-60
2024/03/25 10:37:19;;;;;;;2.13;0.98;;;;;;;26.18;33.91;98108.44;7396622;19;20007;-60
2024/03/25 10:39:50;;;;;;;6.90;1.10;;;;;;;25.95;34.33;98108.47;7395158;19;20037;-60
2024/03/25 10:42:20;;;;;;;;;;;;;;;26.73;34.28;98113.00;7392409;19;20018;-59
2024/03/25 10:44:52;;;;;;;1.63;0.68;;;;;;;27.33;33.56;98106.25;7393661;19;20356;-59
2024/03/25 10:47:25;;;;;;;27.95;1.48;;;;;;;27.33;33.08;98104.13;7394606;19;20014;-59
2024/03/25 10:50:05;;;;;;;0.75;0.70;;;;;;;27.39;33.56;98101.63;7394296;19;20090;-60
2024/03/25 10:52:33;;;;;;;1.08;0.77;;;;;;;26.79;34.27;98096.19;7390535;19;20015;-61
2024/03/25 10:54:59;;;;;;;0.25;0.25;;;;;;;27.07;33.91;98087.69;7388982;19;20011;-59
2024/03/25 10:57:26;;;;;;;0.85;0.60;;;;;;;27.16;33.57;98090.34;7389672;19;20022;-60
2024/03/25 10:59:55;;;;;;;3.58;1.33;;;;;;;27.93;33.66;98088.66;7394034;19;20010;-60
2024/03/25 11:02:22;;;;;;;1.02;0.57;;;;;;;29.20;31.60;98087.72;7389888;19;20458;-61
2024/03/25 11:04:51;;;;;;;9.00;0.70;;;;;;;29.18;31.82;98090.47;7388958;19;20078;-61
2024/03/25 11:07:17;;;;;;;1.00;1.00;;;;;;;29.22;31.48;98087.81;7389649;19;20014;-61
2024/03/25 11:09:43;;;;;;;1.05;0.95;;;;;;;29.33;31.56;98083.25;7395666;19;20011;-61
2024/03/25 11:12:11;;;;;;;0.17;0.17;;;;;;;29.55;31.23;98081.38;7389173;19;20462;-61
2024/03/25 11:14:38;;;;;;;1.25;0.98;;;;;;;29.75;31.35;98079.41;7389462;19;20018;-61
2024/03/25 11:17:17;;;;;;;2.08;0.90;;;;;;;30.07;30.74;98077.16;7390637;19;20011;-61
2024/03/25 11:22:30;;;;;;;0.50;0.50;;;;;;;30.29;31.09;98066.59;7386681;19;20014;-84
2024/03/25 11:24:56;;;;;;;6.57;0.88;;;;;;;30.22;31.11;98070.63;7386173;19;20011;-83
2024/03/25 11:27:26;;;;;;;0.55;0.40;;;;;;;30.32;31.66;98073.19;7386140;19;20015;-82
2024/03/25 11:29:54;;;;;;;0.90;0.80;;;;;;;30.40;30.92;98056.28;7387873;19;20049;-83
2024/03/25 11:32:20;;;;;;;7.43;0.88;;;;;;;30.21;31.17;98051.16;7392896;19;20014;-81
2024/03/25 11:34:52;;;;;;;0.50;0.45;;;;;;;30.50;30.75;98060.28;7394164;19;20011;-83
2024/03/25 11:37:18;;;;;;;0.75;0.45;;;;;;;30.18;31.10;98052.47;7393855;19;20021;-82
2024/03/25 11:39:44;;;;;;;2.20;0.93;;;;;;;31.38;30.10;98045.69;7397647;19;20021;-81
2024/03/25 11:42:13;;;;;;;3.00;0.93;;;;;;;31.58;29.83;98044.97;7397467;19;20039;-82
2024/03/25 11:44:40;;;;;;;1.95;0.85;;;;;;;31.87;29.49;98042.41;7395850;19;20014;-83